Green Valley, California
Current Conditions -  °F | °C
As of 2:51 PM on Wednesday 26 Nov 2014 (Local Time) from KVNY Reporting Station
Clear Clear  
Wind Chill: 87°   Ceiling: Unl
Heat Index: 87°   Visibility: 10mi
Dew Point: 14°   Wind: 3mph
Humidity: 7%   Direction: 120°ESE
Pressure: 30.14"   Gusts: NA
Location:  34.446°N, 118.517°W
Report Text: KVNY 262251Z 12003KT 10SM CLR 31/M10 A3014 RMK AO2 SLP199 T03061100
Loading
Personal Weather Stations






























Interactive Weather Map New forecast layout! Learn more

10-Day Weather Forecast

Advertisements
Track Severe Weather on mobile